Time;durP1;ratioP1;P1;durP2;ratioP2;P2;SDS_P1;SDS_P2;PMS_P1;PMS_P2;Temp;Humidity;BMP_temperature;BMP_pressure;BME280_temperature;BME280_humidity;BME280_pressure;Samples;Min_cycle;Max_cycle;Signal;HPM_P1;HPM_P2
2022/10/02 00:02:04;;;;;;;8.90;2.70;;;11.90;99.90;;;;;;5050869;28;20076;-62
2022/10/02 00:04:36;;;;;;;;;;;12.00;99.90;;;;;;5052363;28;20041;-63
2022/10/02 00:07:08;;;;;;;10.45;2.40;;;11.90;99.90;;;;;;5052385;28;19927;-61
2022/10/02 00:09:52;;;;;;;10.50;2.55;;;11.90;99.90;;;;;;5052059;28;20393;-62
2022/10/02 00:12:22;;;;;;;12.73;3.38;;;11.90;99.90;;;;;;5052176;28;20059;-61
2022/10/02 00:14:52;;;;;;;9.75;2.67;;;11.90;99.90;;;;;;5034336;28;20352;-61
2022/10/02 00:17:24;;;;;;;11.57;2.42;;;11.80;99.90;;;;;;5052099;28;20102;-61
2022/10/02 00:19:54;;;;;;;11.60;2.53;;;11.80;99.90;;;;;;5051090;28;20040;-61
2022/10/02 00:22:36;;;;;;;9.68;2.75;;;11.90;99.90;;;;;;5051353;28;20033;-62
2022/10/02 00:25:24;;;;;;;8.63;2.25;;;11.80;99.90;;;;;;5051379;28;20587;-62
2022/10/02 00:28:26;;;;;;;7.80;2.67;;;11.80;99.90;;;;;;5051555;28;20045;-61
2022/10/02 00:31:04;;;;;;;10.00;2.70;;;11.80;99.90;;;;;;5051985;28;20056;-62
2022/10/02 00:33:58;;;;;;;9.38;2.90;;;11.70;99.90;;;;;;5051049;28;20486;-62
2022/10/02 00:36:32;;;;;;;9.60;2.53;;;11.70;99.90;;;;;;5051266;28;20114;-61
2022/10/02 00:39:03;;;;;;;9.63;2.50;;;11.70;99.90;;;;;;5050217;28;20529;-62
2022/10/02 00:41:42;;;;;;;11.65;2.90;;;11.70;99.90;;;;;;5050475;28;20064;-63
2022/10/02 00:44:22;;;;;;;11.38;2.70;;;11.70;99.90;;;;;;5033860;28;20049;-62
2022/10/02 00:47:18;;;;;;;8.05;2.45;;;11.60;99.90;;;;;;5050512;28;20045;-62
2022/10/02 00:50:16;;;;;;;9.88;3.20;;;11.70;99.90;;;;;;5050280;28;20064;-63
2022/10/02 00:53:20;;;;;;;7.68;2.75;;;11.70;99.90;;;;;;5051130;28;20062;-62
2022/10/02 00:55:55;;;;;;;12.90;3.50;;;11.70;99.90;;;;;;5050667;28;20041;-63
2022/10/02 00:58:50;;;;;;;8.98;2.83;;;11.70;99.90;;;;;;5050517;28;20068;-62
2022/10/02 01:01:27;;;;;;;9.70;2.63;;;11.70;99.90;;;;;;5033070;28;20122;-62
2022/10/02 01:03:55;;;;;;;10.07;2.95;;;11.70;99.90;;;;;;5051516;28;20035;-62
2022/10/02 01:06:27;;;;;;;13.20;3.88;;;11.80;99.90;;;;;;5049851;28;20041;-62
2022/10/02 01:08:53;;;;;;;13.10;3.22;;;11.90;99.90;;;;;;5051251;28;20048;-62
2022/10/02 01:11:21;;;;;;;16.05;3.90;;;11.90;99.90;;;;;;5049798;28;20044;-62
2022/10/02 01:13:47;;;;;;;13.15;3.83;;;11.90;99.90;;;;;;5046907;28;20041;-61
2022/10/02 01:16:13;;;;;;;11.88;3.55;;;11.90;99.90;;;;;;5054066;28;20041;-62
2022/10/02 01:18:40;;;;;;;10.98;3.88;;;11.90;99.90;;;;;;5054833;28;20080;-62
2022/10/02 01:21:19;;;;;;;14.57;3.92;;;11.90;99.90;;;;;;5055637;28;20037;-62
2022/10/02 01:23:56;;;;;;;12.88;3.80;;;11.90;99.90;;;;;;5055377;28;20041;-62
2022/10/02 01:26:22;;;;;;;15.45;3.72;;;11.90;99.90;;;;;;5053953;28;20044;-62
2022/10/02 01:28:48;;;;;;;13.95;4.45;;;11.90;99.90;;;;;;5054894;28;20042;-62
2022/10/02 01:31:14;;;;;;;14.32;4.03;;;11.90;99.90;;;;;;5053451;28;20063;-62
2022/10/02 01:33:42;;;;;;;14.38;3.90;;;11.90;99.90;;;;;;5053293;28;20045;-62
2022/10/02 01:36:10;;;;;;;17.20;3.85;;;11.80;99.90;;;;;;5054286;28;20060;-61
2022/10/02 01:38:36;;;;;;;13.75;3.83;;;11.80;99.90;;;;;;5053094;28;20458;-62
2022/10/02 01:41:02;;;;;;;16.60;3.80;;;11.70;99.90;;;;;;5054584;28;20151;-62
2022/10/02 01:43:33;;;;;;;16.45;3.97;;;11.70;99.90;;;;;;5054220;28;20060;-62
2022/10/02 01:46:20;;;;;;;11.98;3.42;;;11.70;99.90;;;;;;5053456;28;20072;-62
2022/10/02 01:49:16;;;;;;;16.08;4.07;;;11.70;99.90;;;;;;5054979;28;20103;-62
2022/10/02 01:52:16;;;;;;;13.25;3.42;;;11.70;99.90;;;;;;5041232;28;20036;-62
2022/10/02 01:54:48;;;;;;;14.98;3.47;;;11.70;99.90;;;;;;5050479;28;20047;-62
2022/10/02 01:57:31;;;;;;;16.67;3.58;;;11.70;99.90;;;;;;5054914;28;20056;-62
2022/10/02 02:00:12;;;;;;;12.85;3.50;;;11.70;99.90;;;;;;5053281;28;20076;-62
2022/10/02 02:03:12;;;;;;;15.02;3.38;;;11.70;99.90;;;;;;5052985;28;20042;-62
2022/10/02 02:05:37;;;;;;;15.88;3.30;;;11.70;99.90;;;;;;5041541;28;20051;-62
2022/10/02 02:08:15;;;;;;;12.07;3.13;;;11.70;99.90;;;;;;5053728;28;20040;-62
2022/10/02 02:10:44;;;;;;;12.77;3.08;;;11.80;99.90;;;;;;5052640;28;20099;-62
2022/10/02 02:13:25;;;;;;;14.77;3.17;;;11.70;99.90;;;;;;5053913;28;20059;-63
2022/10/02 02:16:19;;;;;;;13.38;3.30;;;11.80;99.90;;;;;;5053105;28;20417;-62
2022/10/02 02:19:14;;;;;;;10.35;2.97;;;11.80;99.90;;;;;;5054170;28;20060;-63
2022/10/02 02:21:52;;;;;;;12.30;2.80;;;11.70;99.90;;;;;;5053136;28;20382;-63
2022/10/02 02:24:34;;;;;;;11.23;2.45;;;11.80;99.90;;;;;;5052970;28;20048;-63
2022/10/02 02:27:03;;;;;;;10.40;2.90;;;11.80;99.90;;;;;;5054274;28;20025;-62
2022/10/02 02:29:33;;;;;;;8.35;2.60;;;11.80;99.90;;;;;;5048660;28;20056;-63
2022/10/02 02:32:01;;;;;;;10.43;2.47;;;11.80;99.90;;;;;;5044748;28;20052;-62
2022/10/02 02:34:44;;;;;;;10.10;2.42;;;11.80;99.90;;;;;;5053359;28;20494;-63
2022/10/02 02:37:17;;;;;;;11.20;2.97;;;11.70;99.90;;;;;;5052627;28;20076;-62
2022/10/02 02:39:47;;;;;;;11.77;2.83;;;11.70;99.90;;;;;;5052266;28;20048;-63
2022/10/02 02:42:17;;;;;;;9.00;2.55;;;11.60;99.90;;;;;;5051861;28;20131;-62
2022/10/02 02:44:48;;;;;;;9.45;2.08;;;11.60;99.90;;;;;;5050424;28;20064;-62
2022/10/02 02:47:23;;;;;;;7.32;1.80;;;11.60;99.90;;;;;;5052185;28;20057;-62
2022/10/02 02:50:11;;;;;;;6.53;2.28;;;11.50;99.90;;;;;;5052243;28;20041;-62
2022/10/02 02:52:44;;;;;;;8.90;2.28;;;11.50;99.90;;;;;;5052954;28;20044;-63
2022/10/02 02:55:18;;;;;;;8.15;2.10;;;11.50;99.90;;;;;;5039002;28;20036;-62
2022/10/02 02:57:50;;;;;;;6.70;2.00;;;11.50;99.90;;;;;;5053844;28;20087;-62
2022/10/02 03:00:18;;;;;;;5.95;1.98;;;11.50;99.90;;;;;;5040397;28;20091;-63
2022/10/02 03:02:44;;;;;;;8.60;2.05;;;11.50;99.90;;;;;;5052118;28;20051;-62
2022/10/02 03:05:14;;;;;;;7.93;2.03;;;11.50;99.90;;;;;;5052895;28;20029;-62
2022/10/02 03:07:45;;;;;;;8.57;2.25;;;11.50;99.90;;;;;;5052428;28;20045;-62
2022/10/02 03:10:18;;;;;;;9.05;2.30;;;11.40;99.90;;;;;;5053297;28;20060;-62
2022/10/02 03:13:10;;;;;;;8.90;2.17;;;11.40;99.90;;;;;;5053357;28;20086;-62
2022/10/02 03:16:10;;;;;;;12.00;2.60;;;11.40;99.90;;;;;;5040035;28;20041;-62
2022/10/02 03:18:50;;;;;;;8.73;2.00;;;11.40;99.90;;;;;;5052882;28;20041;-63
2022/10/02 03:22:03;;;;;;;7.85;2.25;;;11.40;99.90;;;;;;5052133;28;20541;-62
2022/10/02 03:24:43;;;;;;;10.98;2.72;;;11.30;99.90;;;;;;5010310;28;20046;-62
2022/10/02 03:27:23;;;;;;;9.68;2.55;;;11.30;99.90;;;;;;5048663;28;20489;-62
2022/10/02 03:30:04;;;;;;;11.20;2.55;;;11.30;99.90;;;;;;5052012;28;20056;-62
2022/10/02 03:32:32;;;;;;;8.30;2.10;;;11.30;99.90;;;;;;5053133;28;20060;-62
2022/10/02 03:34:59;;;;;;;9.80;2.47;;;11.30;99.90;;;;;;5051878;28;20060;-62
2022/10/02 03:37:27;;;;;;;9.85;2.55;;;11.30;99.90;;;;;;5051610;28;20048;-62
2022/10/02 03:39:56;;;;;;;9.45;2.67;;;11.20;99.90;;;;;;5051730;28;20056;-62
2022/10/02 03:42:25;;;;;;;9.43;2.50;;;11.30;99.90;;;;;;5051105;28;20041;-62
2022/10/02 03:44:50;;;;;;;11.30;3.20;;;11.30;99.90;;;;;;5051125;28;20037;-62
2022/10/02 03:47:16;;;;;;;12.15;3.72;;;11.30;99.90;;;;;;5034930;28;20381;-62
2022/10/02 03:49:41;;;;;;;12.30;2.75;;;11.30;99.90;;;;;;5051067;28;20518;-63
2022/10/02 03:52:15;;;;;;;12.18;2.80;;;11.30;99.90;;;;;;5052719;28;20049;-62
2022/10/02 03:54:42;;;;;;;10.20;2.97;;;11.30;99.90;;;;;;5050698;28;20123;-62
2022/10/02 03:57:18;;;;;;;12.85;2.55;;;11.20;99.90;;;;;;5051828;28;20383;-63
2022/10/02 03:59:52;;;;;;;10.93;2.83;;;11.20;99.90;;;;;;5052882;28;20322;-62
2022/10/02 04:02:28;;;;;;;;;;;11.20;99.90;;;;;;5052650;28;20045;-63
2022/10/02 04:05:12;;;;;;;12.43;3.40;;;11.10;99.90;;;;;;5048853;28;19920;-63
2022/10/02 04:07:42;;;;;;;13.27;3.13;;;11.10;99.90;;;;;;5051910;28;20033;-62
2022/10/02 04:10:26;;;;;;;13.10;2.80;;;11.10;99.90;;;;;;5052316;28;20120;-62
2022/10/02 04:13:01;;;;;;;14.50;3.63;;;11.10;99.90;;;;;;5051071;28;20048;-62
2022/10/02 04:15:54;;;;;;;13.48;3.42;;;11.10;99.90;;;;;;5050812;28;20056;-63
2022/10/02 04:18:26;;;;;;;13.57;3.42;;;11.10;99.90;;;;;;5051959;28;20068;-62
2022/10/02 04:21:01;;;;;;;12.25;3.05;;;11.20;99.90;;;;;;5052141;28;20045;-62
2022/10/02 04:23:38;;;;;;;11.43;3.08;;;11.10;99.90;;;;;;5051764;28;20048;-62
2022/10/02 04:26:12;;;;;;;16.13;3.83;;;11.10;99.90;;;;;;5050604;28;20051;-62
2022/10/02 04:28:43;;;;;;;13.02;3.30;;;11.20;99.90;;;;;;5052140;28;20183;-62
2022/10/02 04:31:12;;;;;;;14.77;3.58;;;11.20;99.90;;;;;;5052117;28;20431;-62
2022/10/02 04:33:39;;;;;;;15.07;3.55;;;11.20;99.90;;;;;;5050811;28;20037;-62
2022/10/02 04:36:37;;;;;;;15.52;3.40;;;11.20;99.90;;;;;;5034051;28;20068;-62
2022/10/02 04:39:11;;;;;;;19.70;3.85;;;11.20;99.90;;;;;;5051490;28;20092;-62
2022/10/02 04:42:00;;;;;;;17.83;3.60;;;11.10;99.90;;;;;;5052026;28;20077;-63
2022/10/02 04:44:39;;;;;;;15.18;3.35;;;11.10;99.90;;;;;;5051473;28;20219;-62
2022/10/02 04:47:37;;;;;;;19.27;3.88;;;11.10;99.90;;;;;;5034235;28;20113;-62
2022/10/02 04:50:25;;;;;;;11.02;3.05;;;11.10;99.90;;;;;;5041265;28;20102;-62
2022/10/02 04:53:22;;;;;;;14.30;3.63;;;11.10;99.90;;;;;;5054274;28;20120;-62
2022/10/02 04:56:25;;;;;;;17.17;3.63;;;11.10;99.90;;;;;;5055441;28;20393;-63
2022/10/02 04:59:09;;;;;;;17.35;3.50;;;11.10;99.90;;;;;;5043095;28;20068;-62
2022/10/02 05:02:03;;;;;;;21.20;3.88;;;11.10;99.90;;;;;;5053708;28;20036;-63
2022/10/02 05:04:53;;;;;;;13.73;3.40;;;11.00;99.90;;;;;;5054561;28;20065;-63
2022/10/02 05:07:43;;;;;;;15.88;3.78;;;11.00;99.90;;;;;;5052537;28;20029;-63
2022/10/02 05:10:17;;;;;;;15.55;4.30;;;11.00;99.90;;;;;;5053984;28;20047;-63
2022/10/02 05:13:12;;;;;;;15.00;3.92;;;11.00;99.90;;;;;;5053614;28;20032;-63
2022/10/02 05:15:53;;;;;;;11.88;3.20;;;11.00;99.90;;;;;;5051766;28;20473;-63
2022/10/02 05:18:40;;;;;;;17.75;3.83;;;10.90;99.90;;;;;;5052810;28;20096;-62
2022/10/02 05:21:34;;;;;;;16.38;3.58;;;11.00;99.90;;;;;;5052273;28;20041;-62
2022/10/02 05:24:18;;;;;;;13.52;3.45;;;11.00;99.90;;;;;;5052155;28;20051;-62
2022/10/02 05:26:53;;;;;;;17.27;4.10;;;11.00;99.90;;;;;;5053785;28;20041;-62
2022/10/02 05:29:26;;;;;;;;;;;11.00;99.90;;;;;;5054378;28;20048;-63
2022/10/02 05:31:55;;;;;;;17.13;3.65;;;11.00;99.90;;;;;;5054031;28;20041;-62
2022/10/02 05:34:51;;;;;;;12.18;3.75;;;11.00;99.90;;;;;;5053075;28;20037;-62
2022/10/02 05:37:29;;;;;;;14.25;3.92;;;11.00;99.90;;;;;;5053639;28;20126;-62
2022/10/02 05:40:19;;;;;;;13.10;3.75;;;11.00;99.90;;;;;;5053416;28;20061;-63
2022/10/02 05:43:06;;;;;;;16.85;3.75;;;10.90;99.90;;;;;;5053351;28;20053;-62
2022/10/02 05:45:45;;;;;;;17.35;3.63;;;11.00;99.90;;;;;;5053036;28;20456;-63
2022/10/02 05:48:19;;;;;;;15.68;3.10;;;11.00;99.90;;;;;;5053596;28;20033;-63
2022/10/02 05:50:50;;;;;;;16.35;3.63;;;11.00;99.90;;;;;;5053878;28;20048;-63
2022/10/02 05:53:44;;;;;;;14.60;3.60;;;11.00;99.90;;;;;;5052847;28;20036;-63
2022/10/02 05:56:23;;;;;;;12.80;3.10;;;11.00;99.90;;;;;;5052289;28;20029;-64
2022/10/02 05:59:06;;;;;;;15.75;4.18;;;11.00;99.90;;;;;;5052822;28;20033;-63
2022/10/02 06:01:38;;;;;;;15.90;3.55;;;11.10;99.90;;;;;;5053572;28;20068;-62
2022/10/02 06:04:16;;;;;;;23.33;4.10;;;11.10;99.90;;;;;;5053382;28;20041;-62
2022/10/02 06:06:52;;;;;;;19.85;3.67;;;11.20;99.90;;;;;;5036752;28;20312;-63
2022/10/02 06:09:20;;;;;;;14.48;3.50;;;11.20;99.90;;;;;;5052769;28;20136;-62
2022/10/02 06:11:58;;;;;;;13.18;3.67;;;11.30;99.90;;;;;;5052751;28;20420;-62
2022/10/02 06:14:31;;;;;;;13.07;3.88;;;11.50;99.90;;;;;;5053955;28;20055;-63
2022/10/02 06:17:02;;;;;;;14.05;3.75;;;11.60;99.90;;;;;;5053601;28;20429;-62
2022/10/02 06:19:39;;;;;;;13.75;3.35;;;11.70;99.90;;;;;;5053295;28;20384;-62
2022/10/02 06:22:25;;;;;;;17.38;3.47;;;11.70;99.90;;;;;;5053484;28;20126;-63
2022/10/02 06:24:59;;;;;;;16.92;4.28;;;11.70;99.90;;;;;;5052093;28;20048;-62
2022/10/02 06:27:37;;;;;;;13.65;3.60;;;11.70;99.90;;;;;;5053797;28;20118;-63
2022/10/02 06:30:13;;;;;;;16.52;3.60;;;11.80;99.90;;;;;;5036478;28;20045;-63
2022/10/02 06:32:57;;;;;;;16.70;3.92;;;11.90;99.90;;;;;;5053597;28;20358;-62
2022/10/02 06:35:50;;;;;;;13.65;3.67;;;12.00;99.90;;;;;;5052662;28;20301;-63
2022/10/02 06:38:21;;;;;;;16.02;4.07;;;12.20;99.90;;;;;;5035966;28;20462;-63
2022/10/02 06:41:25;;;;;;;14.20;3.90;;;12.30;99.90;;;;;;5052941;28;20490;-62
2022/10/02 06:44:09;;;;;;;15.52;3.70;;;12.40;99.90;;;;;;5052938;28;20117;-62
2022/10/02 06:46:56;;;;;;;15.48;3.65;;;12.60;99.90;;;;;;5039046;28;20047;-62
2022/10/02 06:49:58;;;;;;;16.73;3.30;;;12.70;99.90;;;;;;5052742;28;20044;-61
2022/10/02 06:52:47;;;;;;;12.90;3.00;;;12.70;99.90;;;;;;5052503;28;20095;-62
2022/10/02 06:55:25;;;;;;;11.23;3.50;;;12.80;99.90;;;;;;5040954;28;20037;-63
2022/10/02 06:58:18;;;;;;;16.02;3.47;;;12.80;99.90;;;;;;5053424;28;20055;-62
2022/10/02 07:00:57;;;;;;;15.77;3.70;;;12.70;99.90;;;;;;5053371;28;20073;-63
2022/10/02 07:03:41;;;;;;;13.65;3.63;;;12.70;99.90;;;;;;5053258;28;20033;-62
2022/10/02 07:06:24;;;;;;;13.85;3.60;;;12.60;99.90;;;;;;5052379;28;20052;-63
2022/10/02 07:09:21;;;;;;;17.95;3.78;;;12.60;99.90;;;;;;5056211;28;20045;-62
2022/10/02 07:12:14;;;;;;;14.27;3.67;;;12.60;99.90;;;;;;5053132;28;20076;-62
2022/10/02 07:15:02;;;;;;;12.48;3.60;;;12.70;99.90;;;;;;5053405;28;20063;-63
2022/10/02 07:17:57;;;;;;;19.25;4.68;;;12.90;99.90;;;;;;5051577;28;20068;-62
2022/10/02 07:20:45;;;;;;;13.30;3.60;;;13.10;99.90;;;;;;5051920;28;20045;-62
2022/10/02 07:23:23;;;;;;;14.07;3.53;;;13.30;99.90;;;;;;5052393;28;20055;-63
2022/10/02 07:26:08;;;;;;;15.30;3.88;;;13.50;99.90;;;;;;5063620;28;20053;-62
2022/10/02 07:28:53;;;;;;;16.27;3.88;;;13.70;99.90;;;;;;5052453;28;20045;-62
2022/10/02 07:31:30;;;;;;;16.55;3.72;;;13.70;99.90;;;;;;5047717;28;20045;-62
2022/10/02 07:34:05;;;;;;;15.40;3.28;;;13.90;99.90;;;;;;5050870;28;20047;-63
2022/10/02 07:36:57;;;;;;;20.77;3.58;;;14.00;99.90;;;;;;5051450;28;20044;-62
2022/10/02 07:39:42;;;;;;;17.83;4.28;;;14.20;99.90;;;;;;5050230;28;20379;-62
2022/10/02 07:42:23;;;;;;;13.02;3.35;;;14.30;99.90;;;;;;5050257;28;20048;-62
2022/10/02 07:45:09;;;;;;;16.60;4.22;;;14.50;99.90;;;;;;5048996;28;20052;-62
2022/10/02 07:48:12;;;;;;;14.68;4.20;;;14.70;99.90;;;;;;5051878;28;20083;-62
2022/10/02 07:50:57;;;;;;;14.32;3.55;;;14.80;99.90;;;;;;5049637;28;20042;-63
2022/10/02 07:53:39;;;;;;;14.50;3.50;;;14.90;99.90;;;;;;5047109;28;20147;-62
2022/10/02 07:56:18;;;;;;;16.52;3.88;;;14.90;99.90;;;;;;5048764;28;20033;-62
2022/10/02 07:58:50;;;;;;;12.55;3.78;;;14.90;99.90;;;;;;5049952;28;20038;-62
2022/10/02 08:01:19;;;;;;;18.27;3.55;;;14.90;99.90;;;;;;5051797;28;20033;-63
2022/10/02 08:03:57;;;;;;;17.27;4.15;;;14.80;99.90;;;;;;5051436;28;20045;-63
2022/10/02 08:06:23;;;;;;;14.65;3.85;;;14.80;99.90;;;;;;5046338;28;20425;-63
2022/10/02 08:08:54;;;;;;;16.20;4.70;;;14.80;99.90;;;;;;5050441;28;20044;-62
2022/10/02 08:11:45;;;;;;;17.58;4.13;;;14.80;99.90;;;;;;5050339;28;20128;-62
2022/10/02 08:14:14;;;;;;;14.43;3.55;;;14.90;99.90;;;;;;5044689;28;20118;-63
2022/10/02 08:16:47;;;;;;;15.38;4.10;;;14.90;99.90;;;;;;5051611;28;20044;-63
2022/10/02 08:19:18;;;;;;;18.73;3.90;;;15.00;99.90;;;;;;5050656;28;20032;-63
2022/10/02 08:21:51;;;;;;;14.68;3.38;;;15.00;99.90;;;;;;5049962;28;20120;-65
2022/10/02 08:24:25;;;;;;;13.48;3.33;;;15.10;99.90;;;;;;5049537;28;20497;-64
2022/10/02 08:27:07;;;;;;;14.98;3.20;;;15.10;99.90;;;;;;5050810;28;20233;-63
2022/10/02 08:29:41;;;;;;;12.57;3.40;;;15.20;99.90;;;;;;5051260;28;20525;-63
2022/10/02 08:32:11;;;;;;;14.50;2.95;;;15.30;99.90;;;;;;5033884;28;20094;-63
2022/10/02 08:34:37;;;;;;;13.20;3.22;;;15.30;99.90;;;;;;5050560;28;20037;-62
2022/10/02 08:37:08;;;;;;;13.45;3.25;;;15.40;99.90;;;;;;5050405;28;20044;-63
2022/10/02 08:39:52;;;;;;;12.00;3.05;;;15.50;99.90;;;;;;5051081;28;20052;-62
2022/10/02 08:42:42;;;;;;;14.85;3.13;;;15.50;99.90;;;;;;5051435;28;20095;-62
2022/10/02 08:45:39;;;;;;;14.57;3.20;;;15.50;99.90;;;;;;5065032;28;20037;-63
2022/10/02 08:48:43;;;;;;;15.77;4.05;;;15.50;99.90;;;;;;5050339;28;20047;-63
2022/10/02 08:51:54;;;;;;;10.43;2.90;;;15.50;99.90;;;;;;5051181;28;20052;-62
2022/10/02 08:54:37;;;;;;;13.45;3.78;;;15.60;99.90;;;;;;5008714;28;20049;-63
2022/10/02 08:57:06;;;;;;;12.18;2.90;;;15.70;99.90;;;;;;5050107;28;20350;-62
2022/10/02 09:00:13;;;;;;;11.60;3.10;;;15.70;99.90;;;;;;5049921;28;20064;-62
2022/10/02 09:03:01;;;;;;;11.82;2.33;;;15.80;99.90;;;;;;5043000;28;20052;-63
2022/10/02 09:06:16;;;;;;;13.32;3.10;;;15.90;99.90;;;;;;5048694;28;20359;-63
2022/10/02 09:09:23;;;;;;;13.07;2.95;;;16.00;99.90;;;;;;5026287;28;20075;-63
2022/10/02 09:12:00;;;;;;;13.73;3.55;;;16.10;99.90;;;;;;5028323;28;20057;-64
2022/10/02 09:14:46;;;;;;;12.40;2.75;;;16.10;99.90;;;;;;5046157;28;20040;-63
2022/10/02 09:17:39;;;;;;;13.07;2.92;;;16.10;99.90;;;;;;5050051;28;20041;-63
2022/10/02 09:20:40;;;;;;;13.50;2.97;;;16.20;99.90;;;;;;5050030;28;20069;-63
2022/10/02 09:23:08;;;;;;;16.02;3.10;;;16.10;99.90;;;;;;5043782;28;20044;-63
2022/10/02 09:26:00;;;;;;;10.50;2.75;;;16.00;99.90;;;;;;5050975;28;20047;-63
2022/10/02 09:28:49;;;;;;;11.90;2.58;;;16.10;99.90;;;;;;5051322;28;20084;-62
2022/10/02 09:31:39;;;;;;;9.32;2.60;;;16.10;99.90;;;;;;5036043;28;20053;-62
2022/10/02 09:34:25;;;;;;;14.23;3.25;;;16.10;99.90;;;;;;5051544;28;20040;-63
2022/10/02 09:37:10;;;;;;;15.02;3.30;;;16.10;99.90;;;;;;5053361;28;20041;-63
2022/10/02 09:39:53;;;;;;;11.55;2.85;;;16.30;99.90;;;;;;5051410;28;20044;-65
2022/10/02 09:42:52;;;;;;;15.63;2.60;;;16.40;99.90;;;;;;5052929;28;20033;-65
2022/10/02 09:45:42;;;;;;;12.48;2.78;;;16.40;99.90;;;;;;5038338;28;20049;-62
2022/10/02 09:48:44;;;;;;;11.20;3.00;;;16.50;99.90;;;;;;5048264;28;20045;-63
2022/10/02 09:51:25;;;;;;;12.90;3.17;;;16.40;99.90;;;;;;5054419;28;20037;-64
2022/10/02 09:54:35;;;;;;;13.73;3.38;;;16.40;99.90;;;;;;5053877;28;20043;-63
2022/10/02 09:57:46;;;;;;;10.48;3.00;;;16.40;99.90;;;;;;5054169;28;20059;-63
2022/10/02 10:00:31;;;;;;;12.85;3.10;;;16.50;99.90;;;;;;5052653;28;20056;-64
2022/10/02 10:03:28;;;;;;;14.27;2.80;;;16.60;99.90;;;;;;5054024;28;20087;-63
2022/10/02 10:06:11;;;;;;;12.60;2.90;;;16.70;99.90;;;;;;5054499;28;20056;-64
2022/10/02 10:08:39;;;;;;;17.27;3.35;;;16.80;99.90;;;;;;5053873;28;20091;-64
2022/10/02 10:11:28;;;;;;;11.32;2.67;;;17.00;99.90;;;;;;5052558;28;20292;-64
2022/10/02 10:14:36;;;;;;;14.00;3.03;;;17.20;99.90;;;;;;5050543;28;20343;-64
2022/10/02 10:17:42;;;;;;;14.35;2.70;;;17.30;99.90;;;;;;5053954;28;20098;-64
2022/10/02 10:20:35;;;;;;;15.60;2.88;;;17.20;99.90;;;;;;5053418;28;20442;-64
2022/10/02 10:23:35;;;;;;;9.60;2.40;;;17.20;99.90;;;;;;5053518;28;20072;-61
2022/10/02 10:26:53;;;;;;;12.48;2.75;;;17.20;99.90;;;;;;5051313;28;20385;-62
2022/10/02 10:29:56;;;;;;;12.77;2.83;;;17.30;99.90;;;;;;5048055;28;20370;-64
2022/10/02 10:32:42;;;;;;;15.23;3.10;;;17.50;99.90;;;;;;5052378;28;20166;-62
2022/10/02 10:35:25;;;;;;;12.43;2.50;;;17.40;99.90;;;;;;5050587;28;20033;-61
2022/10/02 10:41:10;;;;;;;8.32;2.58;;;17.20;99.90;;;;;;5047686;28;20517;-63
2022/10/02 10:43:57;;;;;;;12.68;3.17;;;17.10;99.90;;;;;;5047744;28;20033;-62
2022/10/02 10:46:35;;;;;;;8.20;2.00;;;17.10;99.90;;;;;;5049173;28;20040;-62
2022/10/02 10:49:56;;;;;;;8.48;2.10;;;17.20;99.90;;;;;;5048265;28;20055;-62
2022/10/02 10:52:57;;;;;;;11.23;2.80;;;17.30;99.90;;;;;;5041849;28;20083;-62
2022/10/02 10:55:28;;;;;;;15.07;2.72;;;17.20;99.90;;;;;;5045206;28;20060;-62
2022/10/02 10:58:33;;;;;;;7.63;2.72;;;17.30;99.90;;;;;;5050569;28;20055;-62
2022/10/02 11:01:07;;;;;;;8.93;2.20;;;17.30;99.90;;;;;;5044478;28;20040;-61
2022/10/02 11:04:16;;;;;;;13.60;2.90;;;17.30;99.90;;;;;;5050829;28;20109;-62
2022/10/02 11:06:41;;;;;;;10.98;2.92;;;17.30;99.90;;;;;;5051235;28;20044;-63
2022/10/02 11:09:10;;;;;;;9.43;2.58;;;17.50;99.90;;;;;;5050836;28;20040;-63
2022/10/02 11:11:47;;;;;;;11.60;2.55;;;17.60;99.90;;;;;;5050291;28;20124;-62
2022/10/02 11:14:46;;;;;;;12.13;2.72;;;17.80;99.90;;;;;;5048379;28;20442;-63
2022/10/02 11:17:55;;;;;;;9.35;2.47;;;18.10;99.90;;;;;;5042294;28;20037;-63
2022/10/02 11:20:43;;;;;;;14.45;2.80;;;17.90;99.90;;;;;;5048054;28;20136;-63
2022/10/02 11:23:36;;;;;;;12.70;2.50;;;17.70;99.90;;;;;;5050088;28;20347;-64
2022/10/02 11:26:25;;;;;;;11.02;2.78;;;17.50;99.90;;;;;;5051132;28;20224;-63
2022/10/02 11:28:51;;;;;;;11.73;3.17;;;17.20;99.90;;;;;;5050940;28;20580;-63
2022/10/02 11:31:41;;;;;;;11.50;3.30;;;17.00;99.90;;;;;;5050542;28;20035;-63
2022/10/02 11:34:43;;;;;;;11.20;2.67;;;16.80;99.90;;;;;;5049433;28;20051;-63
2022/10/02 11:38:10;;;;;;;10.27;2.75;;;16.80;99.90;;;;;;5050181;28;20049;-64
2022/10/02 11:40:55;;;;;;;10.30;2.45;;;16.90;99.90;;;;;;5038527;28;20110;-63
2022/10/02 11:43:38;;;;;;;7.95;2.40;;;17.10;99.90;;;;;;5053039;28;20087;-63
2022/10/02 11:46:40;;;;;;;13.50;3.10;;;17.30;99.90;;;;;;5050810;28;20128;-63
2022/10/02 11:49:39;;;;;;;14.90;3.13;;;17.30;99.90;;;;;;5048849;28;20129;-64
2022/10/02 11:52:23;;;;;;;11.25;2.65;;;17.20;99.90;;;;;;5042027;28;20113;-63
2022/10/02 11:55:08;;;;;;;14.80;3.17;;;17.00;99.90;;;;;;5050921;28;20075;-63
2022/10/02 11:58:00;;;;;;;11.10;2.80;;;16.80;99.90;;;;;;5049794;28;20048;-64
2022/10/02 12:00:38;;;;;;;11.95;3.10;;;16.70;99.90;;;;;;5019636;28;20053;-63
2022/10/02 12:03:03;;;;;;;12.70;3.00;;;16.60;99.90;;;;;;5048651;28;20052;-63
2022/10/02 12:05:54;;;;;;;12.02;2.78;;;16.50;99.90;;;;;;5049891;28;20044;-63
2022/10/02 12:08:29;;;;;;;10.90;3.10;;;16.30;99.90;;;;;;5050110;28;20044;-63
2022/10/02 12:11:08;;;;;;;12.02;2.70;;;16.30;99.90;;;;;;5050227;28;20071;-63
2022/10/02 12:13:46;;;;;;;11.63;3.17;;;16.40;99.90;;;;;;5048969;28;20119;-63
2022/10/02 12:16:30;;;;;;;11.60;3.03;;;16.50;99.90;;;;;;5048381;28;20033;-63
2022/10/02 12:19:29;;;;;;;9.37;2.63;;;16.60;99.90;;;;;;5040588;28;20029;-63
2022/10/02 12:28:06;;;;;;;14.02;2.80;;;16.90;99.90;;;;;;5049323;28;20064;-63
2022/10/02 12:30:53;;;;;;;10.30;2.72;;;17.00;99.90;;;;;;5050201;28;20048;-63
2022/10/02 12:34:02;;;;;;;11.68;2.97;;;16.90;99.90;;;;;;5048944;28;20068;-63
2022/10/02 12:37:01;;;;;;;11.93;3.03;;;16.80;99.90;;;;;;5017777;28;20040;-63
2022/10/02 12:39:42;;;;;;;11.38;2.50;;;16.60;99.90;;;;;;5026374;28;20053;-63
2022/10/02 12:42:27;;;;;;;10.82;2.78;;;16.60;99.90;;;;;;5049329;28;20037;-63
2022/10/02 12:45:12;;;;;;;13.52;3.15;;;16.60;99.90;;;;;;5047113;28;20053;-63
2022/10/02 12:47:52;;;;;;;9.00;2.67;;;16.60;99.90;;;;;;5044451;28;20047;-63
2022/10/02 12:50:34;;;;;;;10.43;2.58;;;16.70;99.90;;;;;;5048807;28;20045;-63
2022/10/02 12:53:21;;;;;;;13.45;2.75;;;16.80;99.90;;;;;;5048685;28;20056;-63
2022/10/02 12:56:05;;;;;;;12.13;2.75;;;16.90;99.90;;;;;;5048806;28;20049;-63
2022/10/02 12:59:21;;;;;;;8.70;2.30;;;17.00;99.90;;;;;;5065927;28;20049;-64
2022/10/02 13:01:52;;;;;;;13.93;2.90;;;17.00;99.90;;;;;;5031375;28;20049;-63
2022/10/02 13:04:47;;;;;;;10.70;2.92;;;16.90;99.90;;;;;;5048718;28;20124;-63
2022/10/02 13:07:19;;;;;;;13.43;3.20;;;16.90;99.90;;;;;;5054162;28;20106;-63
2022/10/02 13:10:02;;;;;;;10.63;2.50;;;16.80;99.90;;;;;;5047981;28;20178;-64
2022/10/02 13:13:06;;;;;;;12.20;2.53;;;16.60;99.90;;;;;;5053264;28;20047;-63
2022/10/02 13:15:58;;;;;;;12.73;2.92;;;16.40;99.90;;;;;;5050453;28;20271;-63
2022/10/02 13:18:42;;;;;;;12.20;2.63;;;16.40;99.90;;;;;;5053322;28;20466;-63
2022/10/02 13:21:22;;;;;;;8.18;2.13;;;16.40;99.90;;;;;;5055658;28;20041;-63
2022/10/02 13:23:51;;;;;;;11.52;3.03;;;16.60;99.90;;;;;;5053169;28;20036;-64
2022/10/02 13:26:48;;;;;;;9.77;2.90;;;16.70;99.90;;;;;;5053596;28;20095;-63
2022/10/02 13:29:29;;;;;;;11.00;2.42;;;16.90;99.90;;;;;;5034731;28;20045;-63
2022/10/02 13:32:08;;;;;;;9.50;2.67;;;17.10;99.90;;;;;;5050763;28;20112;-63
2022/10/02 13:34:46;;;;;;;13.25;2.67;;;17.10;99.90;;;;;;5051953;28;20124;-63
2022/10/02 13:37:35;;;;;;;10.90;2.72;;;17.20;99.90;;;;;;5053284;28;20424;-62
2022/10/02 13:40:24;;;;;;;9.45;2.13;;;17.30;99.90;;;;;;5036976;28;20059;-63
2022/10/02 13:43:30;;;;;;;10.50;2.33;;;17.30;99.90;;;;;;5053153;28;20399;-63
2022/10/02 13:46:24;;;;;;;9.63;2.58;;;17.30;99.90;;;;;;5048177;28;20658;-64
2022/10/02 13:49:30;;;;;;;10.98;2.40;;;17.50;99.90;;;;;;5051017;28;20044;-63
2022/10/02 13:52:31;;;;;;;9.55;1.95;;;17.70;99.90;;;;;;5067559;28;20036;-64
2022/10/02 13:55:11;;;;;;;12.10;2.88;;;17.70;99.90;;;;;;5052907;28;20037;-64
2022/10/02 13:58:10;;;;;;;13.13;2.72;;;17.60;99.90;;;;;;5054517;28;20123;-64
2022/10/02 14:00:36;;;;;;;11.85;2.72;;;17.40;99.90;;;;;;5053006;28;20048;-64
2022/10/02 14:03:32;;;;;;;9.05;2.60;;;17.30;99.90;;;;;;5049782;28;20032;-64
2022/10/02 14:06:20;;;;;;;12.35;2.97;;;17.30;99.90;;;;;;5054486;28;20089;-64
2022/10/02 14:09:07;;;;;;;9.88;2.50;;;17.20;99.90;;;;;;5053318;28;20072;-64
2022/10/02 14:11:55;;;;;;;10.00;2.53;;;17.20;99.90;;;;;;5053304;28;20323;-63